createdAt,value
2018-05-25T00:00:46.287Z,92.87
2018-05-25T00:03:15.897Z,92.07
2018-05-25T00:05:44.639Z,86.30
2018-05-25T00:08:14.191Z,83.77
2018-05-25T00:10:42.678Z,79.97
2018-05-25T00:13:11.255Z,77.27
2018-05-25T00:15:39.637Z,81.57
2018-05-25T00:18:09.121Z,80.80
2018-05-25T00:20:38.541Z,83.43
2018-05-25T00:23:07.024Z,80.37
2018-05-25T00:25:35.549Z,82.33
2018-05-25T00:28:05.013Z,76.87
2018-05-25T00:30:33.533Z,77.40
2018-05-25T00:33:03.201Z,73.67
2018-05-25T00:35:32.097Z,78.03
2018-05-25T00:38:01.809Z,79.73
2018-05-25T00:40:30.283Z,75.33
2018-05-25T00:42:58.943Z,78.50
2018-05-25T00:45:27.471Z,84.70
2018-05-25T00:47:56.036Z,81.60
2018-05-25T00:50:24.642Z,69.07
2018-05-25T00:52:52.895Z,72.13
2018-05-25T00:55:33.177Z,71.17
2018-05-25T00:58:01.426Z,77.33
2018-05-25T01:00:30.015Z,70.67
2018-05-25T01:02:58.433Z,71.53
2018-05-25T01:05:26.668Z,70.10
2018-05-25T01:07:54.911Z,70.47
2018-05-25T01:10:23.169Z,75.90
2018-05-25T01:12:57.080Z,75.50
2018-05-25T01:15:31.246Z,73.13
2018-05-25T01:18:05.319Z,71.70
2018-05-25T01:20:39.148Z,72.93
2018-05-25T01:23:13.180Z,79.80
2018-05-25T01:25:47.209Z,80.03
2018-05-25T01:28:20.981Z,77.80
2018-05-25T01:30:54.737Z,79.37
2018-05-25T01:33:29.390Z,85.30
2018-05-25T01:36:03.438Z,79.70
2018-05-25T01:38:37.378Z,76.27
2018-05-25T01:41:11.177Z,84.10
2018-05-25T01:43:45.792Z,84.70
2018-05-25T01:46:19.738Z,79.40
2018-05-25T01:48:53.546Z,79.07
2018-05-25T01:51:27.349Z,74.93
2018-05-25T01:54:01.154Z,79.73
2018-05-25T01:56:35.871Z,80.73
2018-05-25T01:59:10.676Z,79.57
2018-05-25T02:01:44.596Z,81.87
2018-05-25T02:04:18.497Z,83.63
2018-05-25T02:06:52.290Z,86.67
2018-05-25T02:09:26.097Z,80.37
2018-05-25T02:12:00.196Z,87.10
2018-05-25T02:14:34.834Z,91.67
2018-05-25T02:17:09.330Z,95.40
2018-05-25T02:19:43.220Z,94.00
2018-05-25T02:22:17.074Z,88.40
2018-05-25T02:24:51.009Z,94.73
2018-05-25T02:27:25.479Z,95.93
2018-05-25T02:29:59.376Z,94.93
2018-05-25T02:32:33.225Z,96.27
2018-05-25T02:35:06.973Z,92.90
2018-05-25T02:37:41.651Z,98.40
2018-05-25T02:40:15.508Z,102.63
2018-05-25T02:42:49.980Z,96.90
2018-05-25T02:45:23.889Z,99.77
2018-05-25T02:47:58.559Z,105.20
2018-05-25T02:50:33.204Z,105.83
2018-05-25T02:53:07.115Z,110.67
2018-05-25T02:55:40.957Z,108.97
2018-05-25T02:58:14.807Z,110.20
2018-05-25T03:00:48.837Z,108.70
2018-05-25T03:03:23.484Z,113.57
2018-05-25T03:05:58.255Z,110.03
2018-05-25T03:08:33.062Z,117.73
2018-05-25T03:11:06.833Z,117.13
2018-05-25T03:13:41.597Z,114.77
2018-05-25T03:16:15.607Z,120.13
2018-05-25T03:18:49.569Z,119.70
2018-05-25T03:21:23.344Z,121.27
2018-05-25T03:23:58.115Z,120.97
2018-05-25T03:26:31.961Z,126.73
2018-05-25T03:29:06.079Z,119.50
2018-05-25T03:31:40.045Z,120.90
2018-05-25T03:34:14.030Z,123.23
2018-05-25T03:36:48.104Z,121.27
2018-05-25T03:39:21.998Z,122.73
2018-05-25T03:41:55.954Z,125.37
2018-05-25T03:44:30.568Z,119.57
2018-05-25T03:47:04.563Z,119.20
2018-05-25T03:49:39.222Z,122.77
2018-05-25T03:52:13.408Z,122.50
2018-05-25T03:54:47.353Z,126.13
2018-05-25T03:57:21.320Z,130.90
2018-05-25T04:00:07.181Z,122.00
2018-05-25T04:02:41.734Z,124.80
2018-05-25T04:05:15.643Z,126.63
2018-05-25T04:07:49.422Z,118.00
2018-05-25T04:10:23.162Z,125.97
2018-05-25T04:12:57.822Z,124.07
2018-05-25T04:15:31.765Z,122.57
2018-05-25T04:18:06.582Z,126.40
2018-05-25T04:20:41.348Z,126.20
2018-05-25T04:23:15.345Z,129.07
2018-05-25T04:25:49.335Z,128.83
2018-05-25T04:28:23.353Z,124.73
2018-05-25T04:30:58.082Z,126.07
2018-05-25T04:33:31.916Z,123.97
2018-05-25T04:36:05.995Z,118.47
2018-05-25T04:38:40.037Z,126.23
2018-05-25T04:41:14.729Z,135.00
2018-05-25T04:43:48.635Z,128.93
2018-05-25T04:46:22.384Z,132.77
2018-05-25T04:48:57.974Z,124.07
2018-05-25T04:51:31.985Z,118.23
2018-05-25T04:54:05.901Z,120.33
2018-05-25T04:56:40.530Z,122.57
2018-05-25T04:59:14.246Z,119.97
2018-05-25T05:01:48.067Z,126.43
2018-05-25T05:04:22.098Z,120.63
2018-05-25T05:06:55.904Z,116.93
2018-05-25T05:09:29.824Z,120.47
2018-05-25T05:12:03.647Z,116.80
2018-05-25T05:14:37.381Z,110.20
2018-05-25T05:17:11.222Z,116.77
2018-05-25T05:19:45.905Z,116.60
2018-05-25T05:22:19.573Z,113.10
2018-05-25T05:24:53.574Z,102.37
2018-05-25T05:27:27.329Z,99.33
2018-05-25T05:30:01.224Z,98.47
2018-05-25T05:32:35.196Z,99.10
2018-05-25T05:35:09.033Z,98.87
2018-05-25T05:37:42.911Z,96.80
2018-05-25T05:40:17.350Z,91.60
2018-05-25T05:42:51.188Z,89.90
2018-05-25T05:45:25.017Z,89.43
2018-05-25T05:47:58.846Z,91.77
2018-05-25T05:50:32.713Z,80.90
2018-05-25T05:53:06.621Z,81.43
2018-05-25T05:55:40.476Z,80.90
2018-05-25T05:58:14.349Z,69.77
2018-05-25T06:00:48.608Z,66.33
2018-05-25T06:03:23.173Z,61.30
2018-05-25T06:05:57.117Z,56.13
2018-05-25T06:08:31.149Z,58.80
2018-05-25T06:11:05.081Z,57.53
2018-05-25T06:13:38.838Z,53.47
2018-05-25T06:16:13.490Z,51.80
2018-05-25T06:18:47.191Z,48.07
2018-05-25T06:21:20.975Z,46.87
2018-05-25T06:23:54.718Z,42.67
2018-05-25T06:26:29.403Z,44.20
2018-05-25T06:29:03.223Z,42.93
2018-05-25T06:31:37.071Z,42.17
2018-05-25T06:34:11.508Z,44.90
2018-05-25T06:36:45.380Z,43.13
2018-05-25T06:39:19.962Z,41.27
2018-05-25T06:41:53.878Z,40.83
2018-05-25T06:44:27.764Z,37.17
2018-05-25T06:47:01.689Z,37.60
2018-05-25T06:49:35.325Z,37.10
2018-05-25T06:52:09.942Z,36.23
2018-05-25T06:54:43.704Z,35.03
2018-05-25T06:57:17.641Z,34.87
2018-05-25T06:59:51.484Z,35.77
2018-05-25T07:02:26.029Z,33.83
2018-05-25T07:05:00.077Z,29.37
2018-05-25T07:07:33.751Z,31.27
2018-05-25T07:10:07.975Z,26.73
2018-05-25T07:12:41.762Z,30.60
2018-05-25T07:15:16.085Z,31.03
2018-05-25T07:17:49.889Z,30.50
2018-05-25T07:20:23.670Z,31.33
2018-05-25T07:22:57.405Z,30.87
2018-05-25T07:25:31.241Z,31.60
2018-05-25T07:28:05.106Z,32.77
2018-05-25T07:30:39.185Z,30.03
2018-05-25T07:33:12.905Z,30.10
2018-05-25T07:35:46.731Z,31.47
2018-05-25T07:38:20.697Z,30.50
2018-05-25T07:40:55.549Z,32.80
2018-05-25T07:43:29.487Z,30.80
2018-05-25T07:45:58.531Z,31.13
2018-05-25T07:48:26.773Z,32.47
2018-05-25T07:50:54.977Z,32.23
2018-05-25T07:53:23.369Z,31.67
2018-05-25T07:55:51.656Z,32.13
2018-05-25T07:58:19.840Z,30.37
2018-05-25T08:00:48.825Z,29.93
2018-05-25T08:03:17.325Z,29.47
2018-05-25T08:05:45.534Z,28.90
2018-05-25T08:08:13.799Z,28.10
2018-05-25T08:10:43.052Z,26.77
2018-05-25T08:13:11.225Z,27.27
2018-05-25T08:15:40.209Z,27.50
2018-05-25T08:18:08.404Z,27.83
2018-05-25T08:20:37.478Z,21.63
2018-05-25T08:23:05.741Z,24.33
2018-05-25T08:25:33.932Z,22.80
2018-05-25T08:28:03.002Z,24.07
2018-05-25T08:30:31.208Z,20.77
2018-05-25T08:33:00.196Z,20.37
2018-05-25T08:35:29.171Z,19.70
2018-05-25T08:37:57.484Z,18.50
2018-05-25T08:40:26.484Z,18.13
2018-05-25T08:42:54.729Z,19.67
2018-05-25T08:45:23.847Z,20.83
2018-05-25T08:47:52.080Z,18.77
2018-05-25T08:50:20.291Z,19.30
2018-05-25T08:52:48.705Z,20.60
2018-05-25T08:55:16.910Z,21.83
2018-05-25T08:57:45.129Z,20.20
2018-05-25T09:00:13.350Z,20.83
2018-05-25T09:02:41.624Z,18.20
2018-05-25T09:05:10.150Z,10.87
2018-05-25T09:07:38.340Z,12.20
2018-05-25T09:10:06.646Z,9.60
2018-05-25T09:12:35.006Z,14.27
2018-05-25T09:15:03.265Z,12.77
2018-05-25T09:17:31.506Z,11.60
2018-05-25T09:20:00.440Z,10.83
2018-05-25T09:22:29.182Z,20.47
2018-05-25T09:24:58.182Z,19.17
2018-05-25T09:27:27.170Z,15.90
2018-05-25T09:29:56.307Z,12.33
2018-05-25T09:32:24.506Z,19.13
2018-05-25T09:34:52.770Z,16.43
2018-05-25T09:37:21.008Z,12.93
2018-05-25T09:39:49.196Z,16.53
2018-05-25T09:42:17.465Z,19.53
2018-05-25T09:44:45.689Z,17.03
2018-05-25T09:47:14.722Z,14.57
2018-05-25T09:49:42.940Z,13.23
2018-05-25T09:52:11.245Z,13.03
2018-05-25T09:54:39.501Z,11.53
2018-05-25T09:57:08.471Z,13.60
2018-05-25T09:59:36.706Z,10.00
2018-05-25T10:02:04.926Z,12.43
2018-05-25T10:04:33.173Z,11.13
2018-05-25T10:07:02.059Z,7.73
2018-05-25T10:09:30.263Z,7.53
2018-05-25T10:11:58.446Z,10.67
2018-05-25T10:14:27.484Z,12.37
2018-05-25T10:16:55.721Z,10.87
2018-05-25T10:19:24.001Z,13.40
2018-05-25T10:21:52.956Z,13.32
2018-05-25T10:24:21.175Z,14.83
2018-05-25T10:26:50.117Z,13.03
2018-05-25T10:29:18.317Z,14.07
2018-05-25T10:31:46.501Z,14.67
2018-05-25T10:34:15.477Z,16.03
2018-05-25T10:36:43.694Z,15.37
2018-05-25T10:39:12.017Z,16.73
2018-05-25T10:41:40.667Z,15.80
2018-05-25T10:44:08.869Z,14.80
2018-05-25T10:46:37.072Z,31.93
2018-05-25T10:49:05.247Z,31.23
2018-05-25T10:51:34.234Z,33.33
2018-05-25T10:54:02.441Z,33.53
2018-05-25T10:56:30.629Z,28.60
2018-05-25T10:58:59.203Z,35.30
2018-05-25T11:01:27.383Z,39.93
2018-05-25T11:03:55.574Z,39.50
2018-05-25T11:06:23.810Z,38.80
2018-05-25T11:08:52.741Z,38.93
2018-05-25T11:11:20.951Z,36.27
2018-05-25T11:13:49.128Z,39.40
2018-05-25T11:16:18.077Z,43.53
2018-05-25T11:18:46.274Z,42.47
2018-05-25T11:21:15.255Z,42.20
2018-05-25T11:23:44.308Z,42.87
2018-05-25T11:26:12.502Z,44.43
2018-05-25T11:28:40.801Z,45.90
2018-05-25T11:31:09.054Z,45.73
2018-05-25T11:33:37.234Z,44.10
2018-05-25T11:36:05.530Z,45.73
2018-05-25T11:38:33.735Z,44.37
2018-05-25T11:41:01.944Z,46.80
2018-05-25T11:43:30.153Z,46.53
2018-05-25T11:45:59.106Z,41.27
2018-05-25T11:48:27.308Z,45.67
2018-05-25T11:50:55.522Z,46.43
2018-05-25T11:53:23.749Z,40.90
2018-05-25T11:55:51.970Z,47.13
2018-05-25T11:58:20.213Z,47.90
2018-05-25T12:00:48.443Z,47.27
2018-05-25T12:03:16.651Z,48.93
2018-05-25T12:05:45.649Z,47.40
2018-05-25T12:08:14.657Z,47.37
2018-05-25T12:10:42.923Z,39.00
2018-05-25T12:13:12.044Z,48.40
2018-05-25T12:15:41.012Z,40.63
2018-05-25T12:18:10.024Z,48.27
2018-05-25T12:20:39.073Z,48.33
2018-05-25T12:23:07.304Z,47.53
2018-05-25T12:25:35.534Z,48.83
2018-05-25T12:28:04.483Z,42.57
2018-05-25T12:30:32.673Z,44.20
2018-05-25T12:33:01.553Z,46.07
2018-05-25T12:35:29.713Z,45.67
2018-05-25T12:37:57.957Z,44.10
2018-05-25T12:40:26.921Z,43.17
2018-05-25T12:42:55.149Z,47.70
2018-05-25T12:45:23.357Z,46.57
2018-05-25T12:47:51.610Z,42.30
2018-05-25T12:50:20.603Z,42.90
2018-05-25T12:52:48.798Z,40.77
2018-05-25T12:55:17.027Z,40.27
2018-05-25T12:57:46.265Z,37.40
2018-05-25T13:00:15.060Z,42.63
2018-05-25T13:02:43.277Z,42.03
2018-05-25T13:05:11.520Z,46.43
2018-05-25T13:07:40.568Z,46.27
2018-05-25T13:10:08.829Z,45.43
2018-05-25T13:12:37.006Z,44.67
2018-05-25T13:15:05.202Z,45.23
2018-05-25T13:17:34.329Z,16.80
2018-05-25T13:20:03.394Z,32.90
2018-05-25T13:22:31.667Z,26.33
2018-05-25T13:24:59.903Z,26.03
2018-05-25T13:27:28.159Z,27.80
2018-05-25T13:29:57.165Z,21.80
2018-05-25T13:32:25.480Z,30.33
2018-05-25T13:34:53.733Z,28.20
2018-05-25T13:37:22.055Z,24.63
2018-05-25T13:39:50.312Z,32.90
2018-05-25T13:42:18.712Z,34.27
2018-05-25T13:44:46.893Z,34.87
2018-05-25T13:47:15.253Z,35.67
2018-05-25T13:49:43.520Z,29.70
2018-05-25T13:52:11.702Z,34.83
2018-05-25T13:54:39.914Z,40.27
2018-05-25T13:57:08.139Z,41.67
2018-05-25T13:59:36.351Z,43.07
2018-05-25T14:02:05.301Z,43.67
2018-05-25T14:04:33.508Z,43.93
2018-05-25T14:07:02.464Z,41.03
2018-05-25T14:09:30.726Z,44.67
2018-05-25T14:11:58.927Z,34.53
2018-05-25T14:14:27.149Z,44.23
2018-05-25T14:16:55.375Z,48.33
2018-05-25T14:19:23.609Z,26.80
2018-05-25T14:21:51.837Z,23.17
2018-05-25T14:24:20.797Z,43.77
2018-05-25T14:26:49.071Z,29.07
2018-05-25T14:29:17.392Z,39.43
2018-05-25T14:31:45.635Z,40.90
2018-05-25T14:34:13.936Z,32.97
2018-05-25T14:36:49.312Z,44.42
2018-05-25T14:39:18.620Z,42.90
2018-05-25T14:41:47.106Z,44.87
2018-05-25T14:44:15.328Z,46.83
2018-05-25T14:46:44.312Z,45.17
2018-05-25T14:49:13.331Z,47.70
2018-05-25T14:51:41.556Z,52.20
2018-05-25T14:54:09.738Z,51.40
2018-05-25T14:56:38.780Z,52.40
2018-05-25T14:59:07.028Z,49.30
2018-05-25T15:01:35.174Z,46.83
2018-05-25T15:04:03.458Z,46.97
2018-05-25T15:06:32.491Z,49.43
2018-05-25T15:09:00.735Z,49.93
2018-05-25T15:11:30.379Z,49.80
2018-05-25T15:13:58.622Z,50.77
2018-05-25T15:16:27.601Z,52.00
2018-05-25T15:18:55.890Z,49.67
2018-05-25T15:21:24.202Z,49.23
2018-05-25T15:23:52.430Z,50.07
2018-05-25T15:26:21.469Z,47.60
2018-05-25T15:28:49.761Z,44.70
2018-05-25T15:31:18.109Z,43.27
2018-05-25T15:33:46.936Z,43.90
2018-05-25T15:36:15.185Z,45.10
2018-05-25T15:38:43.483Z,46.70
2018-05-25T15:41:11.715Z,45.70
2018-05-25T15:43:40.152Z,48.27
2018-05-25T15:46:08.665Z,45.53
2018-05-25T15:48:40.961Z,46.97
2018-05-25T15:51:09.604Z,46.47
2018-05-25T15:53:38.822Z,46.50
2018-05-25T15:56:07.199Z,37.47
2018-05-25T15:58:36.398Z,48.87
2018-05-25T16:01:04.673Z,48.30
2018-05-25T16:03:32.980Z,46.97
2018-05-25T16:06:01.841Z,49.77
2018-05-25T16:08:30.154Z,50.30
2018-05-25T16:10:58.532Z,49.80
2018-05-25T16:13:26.818Z,47.30
2018-05-25T16:15:55.127Z,45.23
2018-05-25T16:18:24.180Z,45.03
2018-05-25T16:20:52.447Z,45.93
2018-05-25T16:23:20.870Z,45.40
2018-05-25T16:25:49.421Z,46.13
2018-05-25T16:28:17.779Z,47.80
2018-05-25T16:30:46.037Z,45.33
2018-05-25T16:33:14.463Z,46.53
2018-05-25T16:35:42.743Z,48.67
2018-05-25T16:38:10.976Z,47.57
2018-05-25T16:40:39.353Z,48.33
2018-05-25T16:43:07.666Z,49.80
2018-05-25T16:45:36.112Z,48.87
2018-05-25T16:48:05.003Z,47.20
2018-05-25T16:50:33.264Z,43.50
2018-05-25T16:53:01.661Z,47.07
2018-05-25T16:55:29.900Z,42.87
2018-05-25T16:57:58.081Z,45.10
2018-05-25T17:00:26.363Z,42.07
2018-05-25T17:02:54.699Z,42.47
2018-05-25T17:05:23.760Z,40.70
2018-05-25T17:07:52.157Z,46.83
2018-05-25T17:10:21.299Z,43.93
2018-05-25T17:12:49.937Z,43.50
2018-05-25T17:15:18.230Z,45.43
2018-05-25T17:17:46.577Z,44.60
2018-05-25T17:20:15.062Z,42.37
2018-05-25T17:22:43.642Z,44.30
2018-05-25T17:25:12.460Z,43.17
2018-05-25T17:27:41.616Z,43.60
2018-05-25T17:30:10.202Z,40.60
2018-05-25T17:32:40.330Z,44.10
2018-05-25T17:35:09.632Z,42.67
2018-05-25T17:37:38.271Z,41.23
2018-05-25T17:40:06.919Z,43.60
2018-05-25T17:42:37.519Z,44.90
2018-05-25T17:45:06.203Z,41.40
2018-05-25T17:47:34.695Z,43.77
2018-05-25T17:50:04.278Z,43.63
2018-05-25T17:52:33.201Z,43.50
2018-05-25T17:55:02.878Z,39.70
2018-05-25T17:57:31.373Z,41.77
2018-05-25T18:00:00.217Z,40.80
2018-05-25T18:02:29.688Z,40.17
2018-05-25T18:04:59.811Z,39.63
2018-05-25T18:07:29.309Z,41.70
2018-05-25T18:09:58.710Z,40.53
2018-05-25T18:12:28.118Z,38.67
2018-05-25T18:14:56.700Z,39.87
2018-05-25T18:17:25.514Z,37.67
2018-05-25T18:19:54.103Z,38.27
2018-05-25T18:22:23.682Z,36.90
2018-05-25T18:24:53.086Z,36.90
2018-05-25T18:27:22.498Z,35.07
2018-05-25T18:29:51.056Z,34.83
2018-05-25T18:32:20.398Z,33.27
2018-05-25T18:34:49.011Z,35.03
2018-05-25T18:37:17.439Z,33.23
2018-05-25T18:39:46.062Z,32.77
2018-05-25T18:42:14.605Z,34.37
2018-05-25T18:44:42.994Z,33.43
2018-05-25T18:47:12.033Z,33.37
2018-05-25T18:49:41.372Z,33.60
2018-05-25T18:52:09.966Z,30.83
2018-05-25T18:54:38.439Z,33.00
2018-05-25T18:57:06.984Z,33.50
2018-05-25T19:02:10.240Z,32.20
2018-05-25T19:04:39.554Z,30.73
2018-05-25T19:07:08.829Z,32.43
2018-05-25T19:09:37.483Z,31.93
2018-05-25T19:12:06.728Z,27.37
2018-05-25T19:14:35.569Z,32.40
2018-05-25T19:17:05.031Z,30.70
2018-05-25T19:19:34.268Z,32.90
2018-05-25T19:22:03.724Z,32.00
2018-05-25T19:24:37.770Z,33.47
2018-05-25T19:27:12.566Z,33.07
2018-05-25T19:29:47.605Z,32.90
2018-05-25T19:32:21.709Z,32.60
2018-05-25T19:34:55.622Z,34.83
2018-05-25T19:37:29.614Z,33.90
2018-05-25T19:40:04.195Z,35.17
2018-05-25T19:42:38.024Z,35.10
2018-05-25T19:45:11.831Z,36.13
2018-05-25T19:47:45.668Z,35.90
2018-05-25T19:50:20.836Z,35.73
2018-05-25T19:52:54.959Z,35.53
2018-05-25T19:55:29.610Z,36.90
2018-05-25T19:58:03.469Z,36.63
2018-05-25T20:00:38.213Z,36.43
2018-05-25T20:03:12.820Z,36.53
2018-05-25T20:05:46.797Z,36.43
2018-05-25T20:08:20.685Z,37.40
2018-05-25T20:13:33.299Z,35.33
2018-05-25T20:16:07.044Z,36.40
2018-05-25T20:18:41.287Z,36.33
2018-05-25T20:21:17.141Z,36.17
2018-05-25T20:23:51.095Z,35.97
2018-05-25T20:26:25.369Z,35.17
2018-05-25T20:28:59.448Z,35.83
2018-05-25T20:31:34.007Z,38.40
2018-05-25T20:34:10.276Z,38.87
2018-05-25T20:36:45.605Z,39.53
2018-05-25T20:39:20.748Z,39.47
2018-05-25T20:41:55.684Z,41.27
2018-05-25T20:44:30.412Z,39.87
2018-05-25T20:47:04.638Z,41.67
2018-05-25T20:49:38.636Z,43.30
2018-05-25T20:52:13.978Z,42.77
2018-05-25T20:54:49.219Z,41.53
2018-05-25T20:57:24.151Z,40.53
2018-05-25T20:59:59.390Z,42.37
2018-05-25T21:02:33.722Z,40.93
2018-05-25T21:05:08.725Z,41.23
2018-05-25T21:07:43.546Z,42.43
2018-05-25T21:10:17.658Z,42.63
2018-05-25T21:12:52.725Z,40.97
2018-05-25T21:15:27.320Z,40.17
2018-05-25T21:18:02.559Z,40.87
2018-05-25T21:20:36.976Z,42.90
2018-05-25T21:23:12.461Z,42.33
2018-05-25T21:25:47.157Z,41.60
2018-05-25T21:28:21.500Z,44.27
2018-05-25T21:30:56.840Z,42.70
2018-05-25T21:33:32.800Z,44.00
2018-05-25T21:36:06.969Z,42.20
2018-05-25T21:38:41.311Z,44.67
2018-05-25T21:41:16.166Z,45.10
2018-05-25T21:43:50.329Z,47.20
2018-05-25T21:46:24.903Z,44.73
2018-05-25T21:48:59.939Z,46.63
2018-05-25T21:51:34.564Z,46.67
2018-05-25T21:54:08.779Z,42.97
2018-05-25T21:56:42.793Z,43.47
2018-05-25T21:59:16.941Z,47.00
2018-05-25T22:01:51.508Z,47.60
2018-05-25T22:04:25.853Z,51.57
2018-05-25T22:07:00.373Z,54.13
2018-05-25T22:09:35.206Z,50.60
2018-05-25T22:12:09.729Z,50.77
2018-05-25T22:14:44.659Z,51.70
2018-05-25T22:17:18.582Z,53.20
2018-05-25T22:19:52.457Z,50.87
2018-05-25T22:22:26.476Z,51.83
2018-05-25T22:25:00.573Z,50.77
2018-05-25T22:27:34.714Z,49.37
2018-05-25T22:30:08.588Z,51.97
2018-05-25T22:32:43.317Z,53.23
2018-05-25T22:35:17.362Z,50.43
2018-05-25T22:37:52.223Z,51.37
2018-05-25T22:40:26.106Z,53.23
2018-05-25T22:43:12.094Z,52.87
2018-05-25T22:45:58.060Z,52.93
2018-05-25T22:48:44.062Z,52.00
2018-05-25T22:51:29.967Z,51.90
2018-05-25T22:54:09.260Z,52.60
2018-05-25T22:56:43.217Z,55.53
2018-05-25T22:59:17.186Z,50.60
2018-05-25T23:01:51.335Z,50.50
2018-05-25T23:04:26.182Z,50.30
2018-05-25T23:07:00.089Z,49.43
2018-05-25T23:09:33.909Z,52.53
2018-05-25T23:12:07.817Z,52.10
2018-05-25T23:14:42.475Z,50.23
2018-05-25T23:17:17.347Z,51.20
2018-05-25T23:19:51.409Z,49.33
2018-05-25T23:22:25.577Z,50.60
2018-05-25T23:24:59.522Z,52.53
2018-05-25T23:27:33.272Z,53.10
2018-05-25T23:30:08.041Z,52.37
2018-05-25T23:32:43.270Z,54.10
2018-05-25T23:35:17.601Z,54.17
2018-05-25T23:37:51.588Z,52.80
2018-05-25T23:40:26.385Z,53.30
2018-05-25T23:43:00.323Z,52.23
2018-05-25T23:45:34.724Z,53.07
2018-05-25T23:48:08.635Z,52.17
2018-05-25T23:50:42.569Z,54.17
2018-05-25T23:53:16.650Z,52.37
2018-05-25T23:55:51.441Z,53.77
2018-05-25T23:58:26.161Z,52.33
